sensor_id;sensor_type;location;lat;lon;timestamp;P1;durP1;ratioP1;P2;durP2;ratioP2
27428;SDS011;14881;48.092;11.574;2023-11-21T00:00:38;4.43;;;1.92;;
27428;SDS011;14881;48.092;11.574;2023-11-21T00:03:05;12.30;;;2.55;;
27428;SDS011;14881;48.092;11.574;2023-11-21T00:05:32;9.63;;;2.33;;
27428;SDS011;14881;48.092;11.574;2023-11-21T00:07:59;7.18;;;2.28;;
27428;SDS011;14881;48.092;11.574;2023-11-21T00:10:25;5.82;;;2.20;;
27428;SDS011;14881;48.092;11.574;2023-11-21T00:12:52;8.07;;;2.05;;
27428;SDS011;14881;48.092;11.574;2023-11-21T00:15:20;7.75;;;2.10;;
27428;SDS011;14881;48.092;11.574;2023-11-21T00:17:47;9.40;;;2.30;;
27428;SDS011;14881;48.092;11.574;2023-11-21T00:20:14;5.85;;;2.22;;
27428;SDS011;14881;48.092;11.574;2023-11-21T00:22:41;8.38;;;2.67;;
27428;SDS011;14881;48.092;11.574;2023-11-21T00:25:08;7.70;;;2.25;;
27428;SDS011;14881;48.092;11.574;2023-11-21T00:27:35;7.10;;;2.33;;
27428;SDS011;14881;48.092;11.574;2023-11-21T00:30:01;11.10;;;2.50;;
27428;SDS011;14881;48.092;11.574;2023-11-21T00:32:30;5.25;;;1.90;;
27428;SDS011;14881;48.092;11.574;2023-11-21T00:34:56;5.55;;;1.98;;
27428;SDS011;14881;48.092;11.574;2023-11-21T00:37:23;6.80;;;2.30;;
27428;SDS011;14881;48.092;11.574;2023-11-21T00:39:50;5.95;;;2.00;;
27428;SDS011;14881;48.092;11.574;2023-11-21T00:42:16;12.40;;;2.58;;
27428;SDS011;14881;48.092;11.574;2023-11-21T00:44:43;7.25;;;2.10;;
27428;SDS011;14881;48.092;11.574;2023-11-21T00:47:09;7.03;;;2.08;;
27428;SDS011;14881;48.092;11.574;2023-11-21T00:49:36;8.35;;;1.90;;
27428;SDS011;14881;48.092;11.574;2023-11-21T00:52:02;6.13;;;1.67;;
27428;SDS011;14881;48.092;11.574;2023-11-21T00:54:29;10.07;;;1.98;;
27428;SDS011;14881;48.092;11.574;2023-11-21T00:57:00;7.30;;;2.08;;
27428;SDS011;14881;48.092;11.574;2023-11-21T00:59:26;6.57;;;2.00;;
27428;SDS011;14881;48.092;11.574;2023-11-21T01:01:52;7.80;;;2.20;;
27428;SDS011;14881;48.092;11.574;2023-11-21T01:04:19;10.65;;;2.35;;
27428;SDS011;14881;48.092;11.574;2023-11-21T01:06:46;10.43;;;2.30;;
27428;SDS011;14881;48.092;11.574;2023-11-21T01:09:12;6.10;;;2.03;;
27428;SDS011;14881;48.092;11.574;2023-11-21T01:11:39;6.30;;;2.28;;
27428;SDS011;14881;48.092;11.574;2023-11-21T01:14:06;8.68;;;2.25;;
27428;SDS011;14881;48.092;11.574;2023-11-21T01:16:34;10.32;;;2.70;;
27428;SDS011;14881;48.092;11.574;2023-11-21T01:19:00;3.83;;;2.10;;
27428;SDS011;14881;48.092;11.574;2023-11-21T01:21:27;10.50;;;2.10;;
27428;SDS011;14881;48.092;11.574;2023-11-21T01:23:53;8.32;;;2.00;;
27428;SDS011;14881;48.092;11.574;2023-11-21T01:26:20;5.65;;;1.83;;
27428;SDS011;14881;48.092;11.574;2023-11-21T01:28:47;3.55;;;1.60;;
27428;SDS011;14881;48.092;11.574;2023-11-21T01:31:14;7.63;;;1.98;;
27428;SDS011;14881;48.092;11.574;2023-11-21T01:33:41;6.80;;;1.95;;
27428;SDS011;14881;48.092;11.574;2023-11-21T01:36:08;5.38;;;1.80;;
27428;SDS011;14881;48.092;11.574;2023-11-21T01:38:35;4.72;;;2.00;;
27428;SDS011;14881;48.092;11.574;2023-11-21T01:41:01;8.65;;;2.33;;
27428;SDS011;14881;48.092;11.574;2023-11-21T01:43:27;9.38;;;2.28;;
27428;SDS011;14881;48.092;11.574;2023-11-21T01:45:56;8.77;;;1.83;;
27428;SDS011;14881;48.092;11.574;2023-11-21T01:48:23;5.82;;;1.60;;
27428;SDS011;14881;48.092;11.574;2023-11-21T01:50:50;4.10;;;1.70;;
27428;SDS011;14881;48.092;11.574;2023-11-21T01:53:16;6.82;;;2.47;;
27428;SDS011;14881;48.092;11.574;2023-11-21T01:55:43;5.63;;;2.00;;
27428;SDS011;14881;48.092;11.574;2023-11-21T01:58:11;5.47;;;1.92;;
27428;SDS011;14881;48.092;11.574;2023-11-21T02:00:38;7.13;;;1.80;;
27428;SDS011;14881;48.092;11.574;2023-11-21T02:03:05;4.60;;;1.80;;
27428;SDS011;14881;48.092;11.574;2023-11-21T02:05:32;6.45;;;1.80;;
27428;SDS011;14881;48.092;11.574;2023-11-21T02:07:59;5.80;;;1.88;;
27428;SDS011;14881;48.092;11.574;2023-11-21T02:10:26;4.25;;;2.03;;
27428;SDS011;14881;48.092;11.574;2023-11-21T02:12:52;9.80;;;2.05;;
27428;SDS011;14881;48.092;11.574;2023-11-21T02:15:19;7.53;;;1.92;;
27428;SDS011;14881;48.092;11.574;2023-11-21T02:17:46;6.97;;;2.13;;
27428;SDS011;14881;48.092;11.574;2023-11-21T02:20:13;4.50;;;1.73;;
27428;SDS011;14881;48.092;11.574;2023-11-21T02:22:41;4.03;;;1.85;;
27428;SDS011;14881;48.092;11.574;2023-11-21T02:25:10;6.90;;;1.90;;
27428;SDS011;14881;48.092;11.574;2023-11-21T02:27:37;6.35;;;2.38;;
27428;SDS011;14881;48.092;11.574;2023-11-21T02:30:04;6.18;;;2.10;;
27428;SDS011;14881;48.092;11.574;2023-11-21T02:32:33;6.43;;;2.08;;
27428;SDS011;14881;48.092;11.574;2023-11-21T02:35:13;4.80;;;2.30;;
27428;SDS011;14881;48.092;11.574;2023-11-21T02:37:39;6.65;;;2.20;;
27428;SDS011;14881;48.092;11.574;2023-11-21T02:40:08;7.68;;;2.42;;
27428;SDS011;14881;48.092;11.574;2023-11-21T02:42:36;4.70;;;1.80;;
27428;SDS011;14881;48.092;11.574;2023-11-21T02:45:03;8.75;;;2.38;;
27428;SDS011;14881;48.092;11.574;2023-11-21T02:47:31;7.15;;;1.85;;
27428;SDS011;14881;48.092;11.574;2023-11-21T02:49:57;8.30;;;2.63;;
27428;SDS011;14881;48.092;11.574;2023-11-21T02:52:23;6.40;;;2.13;;
27428;SDS011;14881;48.092;11.574;2023-11-21T02:54:50;8.88;;;2.08;;
27428;SDS011;14881;48.092;11.574;2023-11-21T02:57:17;10.90;;;2.72;;
27428;SDS011;14881;48.092;11.574;2023-11-21T02:59:44;4.60;;;2.13;;
27428;SDS011;14881;48.092;11.574;2023-11-21T03:02:11;7.80;;;1.85;;
27428;SDS011;14881;48.092;11.574;2023-11-21T03:04:38;6.95;;;2.60;;
27428;SDS011;14881;48.092;11.574;2023-11-21T03:07:04;8.43;;;2.10;;
27428;SDS011;14881;48.092;11.574;2023-11-21T03:09:30;7.95;;;2.53;;
27428;SDS011;14881;48.092;11.574;2023-11-21T03:11:57;7.43;;;2.50;;
27428;SDS011;14881;48.092;11.574;2023-11-21T03:14:23;6.68;;;2.10;;
27428;SDS011;14881;48.092;11.574;2023-11-21T03:16:50;8.00;;;2.33;;
27428;SDS011;14881;48.092;11.574;2023-11-21T03:19:17;6.95;;;2.15;;
27428;SDS011;14881;48.092;11.574;2023-11-21T03:21:43;7.13;;;2.15;;
27428;SDS011;14881;48.092;11.574;2023-11-21T03:24:10;7.30;;;2.00;;
27428;SDS011;14881;48.092;11.574;2023-11-21T03:26:36;11.30;;;2.13;;
27428;SDS011;14881;48.092;11.574;2023-11-21T03:29:03;5.53;;;1.77;;
27428;SDS011;14881;48.092;11.574;2023-11-21T03:31:30;8.35;;;2.55;;
27428;SDS011;14881;48.092;11.574;2023-11-21T03:33:58;4.90;;;2.08;;
27428;SDS011;14881;48.092;11.574;2023-11-21T03:36:24;9.05;;;2.10;;
27428;SDS011;14881;48.092;11.574;2023-11-21T03:38:51;9.45;;;2.40;;
27428;SDS011;14881;48.092;11.574;2023-11-21T03:41:17;6.78;;;1.63;;
27428;SDS011;14881;48.092;11.574;2023-11-21T03:43:44;5.53;;;2.00;;
27428;SDS011;14881;48.092;11.574;2023-11-21T03:46:12;8.05;;;2.05;;
27428;SDS011;14881;48.092;11.574;2023-11-21T03:48:39;6.38;;;1.50;;
27428;SDS011;14881;48.092;11.574;2023-11-21T03:51:06;4.93;;;1.77;;
27428;SDS011;14881;48.092;11.574;2023-11-21T03:53:33;3.97;;;1.80;;
27428;SDS011;14881;48.092;11.574;2023-11-21T03:56:01;4.80;;;1.75;;
27428;SDS011;14881;48.092;11.574;2023-11-21T03:58:28;3.38;;;1.45;;
27428;SDS011;14881;48.092;11.574;2023-11-21T04:00:56;4.68;;;1.70;;
27428;SDS011;14881;48.092;11.574;2023-11-21T04:03:22;5.28;;;2.17;;
27428;SDS011;14881;48.092;11.574;2023-11-21T04:05:49;4.65;;;2.25;;
27428;SDS011;14881;48.092;11.574;2023-11-21T04:08:16;4.03;;;1.77;;
27428;SDS011;14881;48.092;11.574;2023-11-21T04:10:42;7.13;;;1.90;;
27428;SDS011;14881;48.092;11.574;2023-11-21T04:13:08;9.27;;;2.15;;
27428;SDS011;14881;48.092;11.574;2023-11-21T04:15:36;5.40;;;1.60;;
27428;SDS011;14881;48.092;11.574;2023-11-21T04:18:02;4.25;;;1.50;;
27428;SDS011;14881;48.092;11.574;2023-11-21T04:20:29;4.88;;;1.50;;
27428;SDS011;14881;48.092;11.574;2023-11-21T04:22:55;5.03;;;1.20;;
27428;SDS011;14881;48.092;11.574;2023-11-21T04:25:22;8.90;;;1.80;;
27428;SDS011;14881;48.092;11.574;2023-11-21T04:27:49;4.57;;;1.60;;
27428;SDS011;14881;48.092;11.574;2023-11-21T04:30:16;4.78;;;2.08;;
27428;SDS011;14881;48.092;11.574;2023-11-21T04:32:42;4.72;;;1.60;;
27428;SDS011;14881;48.092;11.574;2023-11-21T04:35:09;5.70;;;1.45;;
27428;SDS011;14881;48.092;11.574;2023-11-21T04:37:36;4.10;;;1.50;;
27428;SDS011;14881;48.092;11.574;2023-11-21T04:40:03;5.55;;;1.33;;
27428;SDS011;14881;48.092;11.574;2023-11-21T04:42:33;4.55;;;1.92;;
27428;SDS011;14881;48.092;11.574;2023-11-21T04:45:00;5.30;;;1.30;;
27428;SDS011;14881;48.092;11.574;2023-11-21T04:47:27;4.72;;;1.88;;
27428;SDS011;14881;48.092;11.574;2023-11-21T04:49:56;3.03;;;1.20;;
27428;SDS011;14881;48.092;11.574;2023-11-21T04:52:22;3.97;;;1.80;;
27428;SDS011;14881;48.092;11.574;2023-11-21T04:54:49;4.40;;;1.73;;
27428;SDS011;14881;48.092;11.574;2023-11-21T04:57:16;4.68;;;1.20;;
27428;SDS011;14881;48.092;11.574;2023-11-21T04:59:44;2.80;;;1.58;;
27428;SDS011;14881;48.092;11.574;2023-11-21T05:02:10;5.28;;;1.70;;
27428;SDS011;14881;48.092;11.574;2023-11-21T05:04:56;4.05;;;1.65;;
27428;SDS011;14881;48.092;11.574;2023-11-21T05:07:22;3.45;;;1.50;;
27428;SDS011;14881;48.092;11.574;2023-11-21T05:09:49;2.47;;;1.20;;
27428;SDS011;14881;48.092;11.574;2023-11-21T05:12:15;5.25;;;1.48;;
27428;SDS011;14881;48.092;11.574;2023-11-21T05:14:42;4.95;;;1.42;;
27428;SDS011;14881;48.092;11.574;2023-11-21T05:17:09;4.53;;;1.60;;
27428;SDS011;14881;48.092;11.574;2023-11-21T05:19:36;4.75;;;1.40;;
27428;SDS011;14881;48.092;11.574;2023-11-21T05:22:03;5.47;;;1.42;;
27428;SDS011;14881;48.092;11.574;2023-11-21T05:24:29;5.82;;;2.00;;
27428;SDS011;14881;48.092;11.574;2023-11-21T05:26:56;4.40;;;1.45;;
27428;SDS011;14881;48.092;11.574;2023-11-21T05:29:22;3.95;;;1.70;;
27428;SDS011;14881;48.092;11.574;2023-11-21T05:31:48;2.72;;;1.60;;
27428;SDS011;14881;48.092;11.574;2023-11-21T05:34:15;3.72;;;1.67;;
27428;SDS011;14881;48.092;11.574;2023-11-21T05:36:44;5.07;;;1.83;;
27428;SDS011;14881;48.092;11.574;2023-11-21T05:39:11;3.85;;;1.58;;
27428;SDS011;14881;48.092;11.574;2023-11-21T05:41:37;3.75;;;1.55;;
27428;SDS011;14881;48.092;11.574;2023-11-21T05:44:04;6.57;;;1.73;;
27428;SDS011;14881;48.092;11.574;2023-11-21T05:46:31;3.58;;;1.80;;
27428;SDS011;14881;48.092;11.574;2023-11-21T05:48:57;3.65;;;1.50;;
27428;SDS011;14881;48.092;11.574;2023-11-21T05:51:24;3.33;;;1.70;;
27428;SDS011;14881;48.092;11.574;2023-11-21T05:53:51;3.28;;;1.55;;
27428;SDS011;14881;48.092;11.574;2023-11-21T05:56:17;5.40;;;1.77;;
27428;SDS011;14881;48.092;11.574;2023-11-21T05:58:43;3.35;;;1.48;;
27428;SDS011;14881;48.092;11.574;2023-11-21T06:01:10;4.00;;;1.60;;
27428;SDS011;14881;48.092;11.574;2023-11-21T06:03:38;5.65;;;1.63;;
27428;SDS011;14881;48.092;11.574;2023-11-21T06:06:05;6.00;;;1.67;;
27428;SDS011;14881;48.092;11.574;2023-11-21T06:08:33;3.45;;;1.48;;
27428;SDS011;14881;48.092;11.574;2023-11-21T06:10:59;3.90;;;1.55;;
27428;SDS011;14881;48.092;11.574;2023-11-21T06:13:26;3.97;;;1.60;;
27428;SDS011;14881;48.092;11.574;2023-11-21T06:15:53;4.57;;;1.50;;
27428;SDS011;14881;48.092;11.574;2023-11-21T06:18:20;6.57;;;1.80;;
27428;SDS011;14881;48.092;11.574;2023-11-21T06:20:47;7.10;;;1.75;;
27428;SDS011;14881;48.092;11.574;2023-11-21T06:23:13;7.55;;;2.05;;
27428;SDS011;14881;48.092;11.574;2023-11-21T06:25:40;7.00;;;1.70;;
27428;SDS011;14881;48.092;11.574;2023-11-21T06:28:07;3.15;;;1.67;;
27428;SDS011;14881;48.092;11.574;2023-11-21T06:30:33;4.60;;;1.42;;
27428;SDS011;14881;48.092;11.574;2023-11-21T06:33:00;3.92;;;1.83;;
27428;SDS011;14881;48.092;11.574;2023-11-21T06:35:26;3.85;;;1.63;;
27428;SDS011;14881;48.092;11.574;2023-11-21T06:37:55;4.20;;;2.00;;
27428;SDS011;14881;48.092;11.574;2023-11-21T06:40:22;4.78;;;1.50;;
27428;SDS011;14881;48.092;11.574;2023-11-21T06:42:49;2.00;;;1.40;;
27428;SDS011;14881;48.092;11.574;2023-11-21T06:45:16;2.53;;;1.70;;
27428;SDS011;14881;48.092;11.574;2023-11-21T06:47:43;2.40;;;1.42;;
27428;SDS011;14881;48.092;11.574;2023-11-21T06:50:10;6.07;;;1.67;;
27428;SDS011;14881;48.092;11.574;2023-11-21T06:52:37;2.40;;;1.27;;
27428;SDS011;14881;48.092;11.574;2023-11-21T06:55:04;4.72;;;1.50;;
27428;SDS011;14881;48.092;11.574;2023-11-21T06:57:34;3.38;;;1.48;;
27428;SDS011;14881;48.092;11.574;2023-11-21T07:00:01;4.15;;;1.40;;
27428;SDS011;14881;48.092;11.574;2023-11-21T07:02:29;2.50;;;1.23;;
27428;SDS011;14881;48.092;11.574;2023-11-21T07:04:55;2.70;;;1.20;;
27428;SDS011;14881;48.092;11.574;2023-11-21T07:07:21;2.00;;;1.48;;
27428;SDS011;14881;48.092;11.574;2023-11-21T07:09:48;4.28;;;1.30;;
27428;SDS011;14881;48.092;11.574;2023-11-21T07:12:14;5.20;;;1.52;;
27428;SDS011;14881;48.092;11.574;2023-11-21T07:14:41;3.13;;;1.30;;
27428;SDS011;14881;48.092;11.574;2023-11-21T07:17:11;2.97;;;0.95;;
27428;SDS011;14881;48.092;11.574;2023-11-21T07:19:37;2.95;;;1.45;;
27428;SDS011;14881;48.092;11.574;2023-11-21T07:22:04;3.83;;;1.50;;
27428;SDS011;14881;48.092;11.574;2023-11-21T07:24:31;4.15;;;1.77;;
27428;SDS011;14881;48.092;11.574;2023-11-21T07:26:58;4.95;;;1.17;;
27428;SDS011;14881;48.092;11.574;2023-11-21T07:29:24;2.75;;;1.23;;
27428;SDS011;14881;48.092;11.574;2023-11-21T07:31:51;4.05;;;1.42;;
27428;SDS011;14881;48.092;11.574;2023-11-21T07:34:18;2.00;;;1.13;;
27428;SDS011;14881;48.092;11.574;2023-11-21T07:36:45;2.50;;;1.20;;
27428;SDS011;14881;48.092;11.574;2023-11-21T07:39:11;2.60;;;1.27;;
27428;SDS011;14881;48.092;11.574;2023-11-21T07:41:37;1.75;;;0.98;;
27428;SDS011;14881;48.092;11.574;2023-11-21T07:44:10;4.60;;;1.20;;
27428;SDS011;14881;48.092;11.574;2023-11-21T07:46:37;1.70;;;1.20;;
27428;SDS011;14881;48.092;11.574;2023-11-21T07:49:03;1.95;;;1.02;;
27428;SDS011;14881;48.092;11.574;2023-11-21T07:51:30;1.98;;;1.13;;
27428;SDS011;14881;48.092;11.574;2023-11-21T07:53:56;4.38;;;1.40;;
27428;SDS011;14881;48.092;11.574;2023-11-21T07:56:23;2.80;;;1.25;;
27428;SDS011;14881;48.092;11.574;2023-11-21T07:58:49;2.10;;;1.50;;
27428;SDS011;14881;48.092;11.574;2023-11-21T08:01:18;4.10;;;1.33;;
27428;SDS011;14881;48.092;11.574;2023-11-21T08:03:44;4.57;;;1.02;;
27428;SDS011;14881;48.092;11.574;2023-11-21T08:06:11;2.95;;;1.27;;
27428;SDS011;14881;48.092;11.574;2023-11-21T08:08:38;3.53;;;1.55;;
27428;SDS011;14881;48.092;11.574;2023-11-21T08:11:04;2.75;;;0.90;;
27428;SDS011;14881;48.092;11.574;2023-11-21T08:13:33;2.17;;;1.10;;
27428;SDS011;14881;48.092;11.574;2023-11-21T08:16:00;2.72;;;1.30;;
27428;SDS011;14881;48.092;11.574;2023-11-21T08:18:29;6.07;;;1.30;;
27428;SDS011;14881;48.092;11.574;2023-11-21T08:20:56;1.60;;;1.10;;
27428;SDS011;14881;48.092;11.574;2023-11-21T08:23:23;1.30;;;0.90;;
27428;SDS011;14881;48.092;11.574;2023-11-21T08:25:51;3.75;;;1.10;;
27428;SDS011;14881;48.092;11.574;2023-11-21T08:28:18;2.28;;;1.02;;
27428;SDS011;14881;48.092;11.574;2023-11-21T08:30:45;1.67;;;1.10;;
27428;SDS011;14881;48.092;11.574;2023-11-21T08:33:11;1.88;;;1.02;;
27428;SDS011;14881;48.092;11.574;2023-11-21T08:35:38;3.70;;;1.20;;
27428;SDS011;14881;48.092;11.574;2023-11-21T08:38:05;2.35;;;1.10;;
27428;SDS011;14881;48.092;11.574;2023-11-21T08:40:32;1.58;;;0.90;;
27428;SDS011;14881;48.092;11.574;2023-11-21T08:42:59;1.75;;;1.13;;
27428;SDS011;14881;48.092;11.574;2023-11-21T08:45:25;1.85;;;0.82;;
27428;SDS011;14881;48.092;11.574;2023-11-21T08:47:52;3.10;;;1.42;;
27428;SDS011;14881;48.092;11.574;2023-11-21T08:50:18;4.85;;;1.50;;
27428;SDS011;14881;48.092;11.574;2023-11-21T08:52:45;2.45;;;1.40;;
27428;SDS011;14881;48.092;11.574;2023-11-21T08:55:12;5.63;;;1.35;;
27428;SDS011;14881;48.092;11.574;2023-11-21T08:57:39;2.67;;;2.03;;
27428;SDS011;14881;48.092;11.574;2023-11-21T09:00:08;4.75;;;2.05;;
27428;SDS011;14881;48.092;11.574;2023-11-21T09:02:37;3.80;;;1.52;;
27428;SDS011;14881;48.092;11.574;2023-11-21T09:05:04;3.25;;;1.50;;
27428;SDS011;14881;48.092;11.574;2023-11-21T09:07:31;3.05;;;1.40;;
27428;SDS011;14881;48.092;11.574;2023-11-21T09:09:57;3.72;;;1.42;;
27428;SDS011;14881;48.092;11.574;2023-11-21T09:12:24;2.03;;;1.30;;
27428;SDS011;14881;48.092;11.574;2023-11-21T09:14:50;3.55;;;1.30;;
27428;SDS011;14881;48.092;11.574;2023-11-21T09:17:18;2.28;;;1.27;;
27428;SDS011;14881;48.092;11.574;2023-11-21T09:19:44;2.17;;;1.27;;
27428;SDS011;14881;48.092;11.574;2023-11-21T09:22:15;3.33;;;1.48;;
27428;SDS011;14881;48.092;11.574;2023-11-21T09:24:42;3.42;;;1.23;;
27428;SDS011;14881;48.092;11.574;2023-11-21T09:27:08;4.13;;;1.35;;
27428;SDS011;14881;48.092;11.574;2023-11-21T09:29:35;2.63;;;1.40;;
27428;SDS011;14881;48.092;11.574;2023-11-21T09:32:03;4.10;;;1.55;;
27428;SDS011;14881;48.092;11.574;2023-11-21T09:34:33;3.53;;;1.67;;
27428;SDS011;14881;48.092;11.574;2023-11-21T09:37:04;3.28;;;1.48;;
27428;SDS011;14881;48.092;11.574;2023-11-21T09:39:32;5.15;;;1.67;;
27428;SDS011;14881;48.092;11.574;2023-11-21T09:42:03;3.47;;;1.77;;
27428;SDS011;14881;48.092;11.574;2023-11-21T09:44:36;3.53;;;1.55;;
27428;SDS011;14881;48.092;11.574;2023-11-21T09:47:13;2.35;;;1.45;;
27428;SDS011;14881;48.092;11.574;2023-11-21T09:49:42;5.88;;;1.60;;
27428;SDS011;14881;48.092;11.574;2023-11-21T09:52:15;3.83;;;2.10;;
27428;SDS011;14881;48.092;11.574;2023-11-21T09:54:50;2.97;;;1.45;;
27428;SDS011;14881;48.092;11.574;2023-11-21T09:57:19;2.28;;;1.83;;
27428;SDS011;14881;48.092;11.574;2023-11-21T09:59:52;3.65;;;1.75;;
27428;SDS011;14881;48.092;11.574;2023-11-21T10:02:22;5.15;;;1.95;;
27428;SDS011;14881;48.092;11.574;2023-11-21T10:04:52;4.65;;;2.00;;
27428;SDS011;14881;48.092;11.574;2023-11-21T10:07:20;2.70;;;2.03;;
27428;SDS011;14881;48.092;11.574;2023-11-21T10:09:47;5.00;;;1.58;;
27428;SDS011;14881;48.092;11.574;2023-11-21T10:12:14;2.22;;;1.30;;
27428;SDS011;14881;48.092;11.574;2023-11-21T10:14:42;2.65;;;1.70;;
27428;SDS011;14881;48.092;11.574;2023-11-21T10:17:10;5.45;;;1.40;;
27428;SDS011;14881;48.092;11.574;2023-11-21T10:19:38;2.67;;;1.63;;
27428;SDS011;14881;48.092;11.574;2023-11-21T10:22:06;4.22;;;1.55;;
27428;SDS011;14881;48.092;11.574;2023-11-21T10:24:32;3.63;;;1.40;;
27428;SDS011;14881;48.092;11.574;2023-11-21T10:27:13;3.22;;;1.50;;
27428;SDS011;14881;48.092;11.574;2023-11-21T10:29:40;6.65;;;1.90;;
27428;SDS011;14881;48.092;11.574;2023-11-21T10:32:07;3.03;;;1.40;;
27428;SDS011;14881;48.092;11.574;2023-11-21T10:34:34;3.58;;;1.55;;
27428;SDS011;14881;48.092;11.574;2023-11-21T10:37:07;3.05;;;1.25;;
27428;SDS011;14881;48.092;11.574;2023-11-21T10:39:38;5.20;;;1.65;;
27428;SDS011;14881;48.092;11.574;2023-11-21T10:42:07;3.90;;;2.20;;
27428;SDS011;14881;48.092;11.574;2023-11-21T10:44:34;3.47;;;1.80;;
27428;SDS011;14881;48.092;11.574;2023-11-21T10:47:00;2.92;;;1.52;;
27428;SDS011;14881;48.092;11.574;2023-11-21T10:49:28;4.28;;;1.65;;
27428;SDS011;14881;48.092;11.574;2023-11-21T10:51:54;4.55;;;2.00;;
27428;SDS011;14881;48.092;11.574;2023-11-21T10:54:23;2.28;;;1.63;;
27428;SDS011;14881;48.092;11.574;2023-11-21T10:56:53;4.60;;;2.28;;
27428;SDS011;14881;48.092;11.574;2023-11-21T10:59:22;3.72;;;1.92;;
27428;SDS011;14881;48.092;11.574;2023-11-21T11:01:50;4.80;;;1.73;;
27428;SDS011;14881;48.092;11.574;2023-11-21T11:04:18;2.92;;;1.38;;
27428;SDS011;14881;48.092;11.574;2023-11-21T11:06:45;4.70;;;1.90;;
27428;SDS011;14881;48.092;11.574;2023-11-21T11:09:17;3.67;;;1.70;;
27428;SDS011;14881;48.092;11.574;2023-11-21T11:11:44;2.38;;;1.73;;
27428;SDS011;14881;48.092;11.574;2023-11-21T11:14:12;2.45;;;1.50;;
27428;SDS011;14881;48.092;11.574;2023-11-21T11:16:40;3.55;;;1.70;;
27428;SDS011;14881;48.092;11.574;2023-11-21T11:19:07;5.13;;;1.50;;
27428;SDS011;14881;48.092;11.574;2023-11-21T11:21:37;5.68;;;1.55;;
27428;SDS011;14881;48.092;11.574;2023-11-21T11:24:20;2.08;;;1.65;;
27428;SDS011;14881;48.092;11.574;2023-11-21T11:27:01;1.77;;;1.40;;
27428;SDS011;14881;48.092;11.574;2023-11-21T11:29:39;4.63;;;1.63;;
27428;SDS011;14881;48.092;11.574;2023-11-21T11:32:16;3.15;;;1.40;;
27428;SDS011;14881;48.092;11.574;2023-11-21T11:34:56;2.72;;;1.40;;
27428;SDS011;14881;48.092;11.574;2023-11-21T11:37:29;1.60;;;1.38;;
27428;SDS011;14881;48.092;11.574;2023-11-21T11:39:56;2.17;;;1.50;;
27428;SDS011;14881;48.092;11.574;2023-11-21T11:42:23;3.25;;;1.60;;
27428;SDS011;14881;48.092;11.574;2023-11-21T11:44:51;2.72;;;1.20;;
27428;SDS011;14881;48.092;11.574;2023-11-21T11:47:20;4.40;;;1.48;;
27428;SDS011;14881;48.092;11.574;2023-11-21T11:50:00;1.48;;;1.23;;
27428;SDS011;14881;48.092;11.574;2023-11-21T11:52:39;1.77;;;1.27;;
27428;SDS011;14881;48.092;11.574;2023-11-21T11:55:07;1.38;;;1.05;;
27428;SDS011;14881;48.092;11.574;2023-11-21T11:57:36;1.70;;;1.30;;
27428;SDS011;14881;48.092;11.574;2023-11-21T12:00:07;1.88;;;1.50;;
27428;SDS011;14881;48.092;11.574;2023-11-21T12:02:36;3.63;;;1.40;;
27428;SDS011;14881;48.092;11.574;2023-11-21T12:05:06;3.70;;;1.48;;
27428;SDS011;14881;48.092;11.574;2023-11-21T12:07:44;2.25;;;1.50;;
27428;SDS011;14881;48.092;11.574;2023-11-21T12:10:13;5.47;;;2.08;;
27428;SDS011;14881;48.092;11.574;2023-11-21T12:12:44;3.17;;;1.88;;
27428;SDS011;14881;48.092;11.574;2023-11-21T12:15:15;1.50;;;1.40;;
27428;SDS011;14881;48.092;11.574;2023-11-21T12:17:42;2.63;;;1.55;;
27428;SDS011;14881;48.092;11.574;2023-11-21T12:20:10;3.70;;;2.00;;
27428;SDS011;14881;48.092;11.574;2023-11-21T12:22:41;4.63;;;1.73;;
27428;SDS011;14881;48.092;11.574;2023-11-21T12:25:10;4.57;;;2.72;;
27428;SDS011;14881;48.092;11.574;2023-11-21T12:27:42;2.70;;;1.98;;
27428;SDS011;14881;48.092;11.574;2023-11-21T12:30:12;3.53;;;1.80;;
27428;SDS011;14881;48.092;11.574;2023-11-21T12:32:39;3.22;;;1.50;;
27428;SDS011;14881;48.092;11.574;2023-11-21T12:35:07;6.13;;;2.10;;
27428;SDS011;14881;48.092;11.574;2023-11-21T12:37:35;2.85;;;1.40;;
27428;SDS011;14881;48.092;11.574;2023-11-21T12:40:02;2.47;;;1.33;;
27428;SDS011;14881;48.092;11.574;2023-11-21T12:42:29;1.67;;;1.17;;
27428;SDS011;14881;48.092;11.574;2023-11-21T12:45:09;3.10;;;1.13;;
27428;SDS011;14881;48.092;11.574;2023-11-21T12:47:46;4.00;;;1.40;;
27428;SDS011;14881;48.092;11.574;2023-11-21T12:50:14;2.80;;;1.40;;
27428;SDS011;14881;48.092;11.574;2023-11-21T12:52:42;3.85;;;1.20;;
27428;SDS011;14881;48.092;11.574;2023-11-21T12:55:15;2.70;;;1.30;;
27428;SDS011;14881;48.092;11.574;2023-11-21T12:57:43;2.28;;;1.20;;
27428;SDS011;14881;48.092;11.574;2023-11-21T13:00:11;2.50;;;1.27;;
27428;SDS011;14881;48.092;11.574;2023-11-21T13:02:50;2.88;;;1.30;;
27428;SDS011;14881;48.092;11.574;2023-11-21T13:05:23;4.32;;;1.48;;
27428;SDS011;14881;48.092;11.574;2023-11-21T13:07:50;1.50;;;1.25;;
27428;SDS011;14881;48.092;11.574;2023-11-21T13:10:21;2.92;;;1.40;;
27428;SDS011;14881;48.092;11.574;2023-11-21T13:12:51;3.58;;;1.50;;
27428;SDS011;14881;48.092;11.574;2023-11-21T13:15:19;2.08;;;1.38;;
27428;SDS011;14881;48.092;11.574;2023-11-21T13:17:46;2.03;;;1.40;;
27428;SDS011;14881;48.092;11.574;2023-11-21T13:20:13;2.92;;;1.35;;
27428;SDS011;14881;48.092;11.574;2023-11-21T13:22:45;3.45;;;2.88;;
27428;SDS011;14881;48.092;11.574;2023-11-21T13:25:20;4.10;;;2.72;;
27428;SDS011;14881;48.092;11.574;2023-11-21T13:27:47;2.28;;;1.50;;
27428;SDS011;14881;48.092;11.574;2023-11-21T13:30:14;1.92;;;1.45;;
27428;SDS011;14881;48.092;11.574;2023-11-21T13:32:42;4.05;;;1.60;;
27428;SDS011;14881;48.092;11.574;2023-11-21T13:35:10;2.65;;;1.48;;
27428;SDS011;14881;48.092;11.574;2023-11-21T13:37:49;4.47;;;1.63;;
27428;SDS011;14881;48.092;11.574;2023-11-21T13:40:21;2.47;;;1.90;;
27428;SDS011;14881;48.092;11.574;2023-11-21T13:42:52;2.38;;;1.90;;
27428;SDS011;14881;48.092;11.574;2023-11-21T13:45:19;3.42;;;1.92;;
27428;SDS011;14881;48.092;11.574;2023-11-21T13:47:50;3.33;;;1.77;;
27428;SDS011;14881;48.092;11.574;2023-11-21T13:50:23;2.35;;;2.03;;
27428;SDS011;14881;48.092;11.574;2023-11-21T13:52:54;2.95;;;1.40;;
27428;SDS011;14881;48.092;11.574;2023-11-21T13:55:20;1.60;;;1.50;;
27428;SDS011;14881;48.092;11.574;2023-11-21T13:57:51;4.85;;;1.85;;
27428;SDS011;14881;48.092;11.574;2023-11-21T14:00:20;2.92;;;1.80;;
27428;SDS011;14881;48.092;11.574;2023-11-21T14:03:11;2.95;;;1.90;;
27428;SDS011;14881;48.092;11.574;2023-11-21T14:05:46;4.95;;;2.22;;
27428;SDS011;14881;48.092;11.574;2023-11-21T14:08:17;5.60;;;1.48;;
27428;SDS011;14881;48.092;11.574;2023-11-21T14:10:45;3.10;;;1.95;;
27428;SDS011;14881;48.092;11.574;2023-11-21T14:13:16;1.05;;;0.95;;
27428;SDS011;14881;48.092;11.574;2023-11-21T14:15:43;0.93;;;0.93;;
27428;SDS011;14881;48.092;11.574;2023-11-21T14:18:12;0.98;;;0.70;;
27428;SDS011;14881;48.092;11.574;2023-11-21T14:20:42;0.90;;;0.80;;
27428;SDS011;14881;48.092;11.574;2023-11-21T14:23:10;1.95;;;0.90;;
27428;SDS011;14881;48.092;11.574;2023-11-21T14:25:37;2.13;;;0.90;;
27428;SDS011;14881;48.092;11.574;2023-11-21T14:28:05;1.80;;;1.10;;
27428;SDS011;14881;48.092;11.574;2023-11-21T14:30:32;0.80;;;0.80;;
27428;SDS011;14881;48.092;11.574;2023-11-21T14:33:01;1.33;;;0.95;;
27428;SDS011;14881;48.092;11.574;2023-11-21T14:35:29;1.85;;;1.10;;
27428;SDS011;14881;48.092;11.574;2023-11-21T14:37:58;3.25;;;1.05;;